sensor_id;sensor_type;location;lat;lon;timestamp;temperature;humidity
31379;DHT22;61664;48.112;11.662;2023-02-28T00:01:30;2.00;74.40
31379;DHT22;61664;48.112;11.662;2023-02-28T00:03:58;2.00;75.10
31379;DHT22;61664;48.112;11.662;2023-02-28T00:06:26;2.00;75.00
31379;DHT22;61664;48.112;11.662;2023-02-28T00:08:53;2.00;74.90
31379;DHT22;61664;48.112;11.662;2023-02-28T00:11:20;2.00;75.00
31379;DHT22;61664;48.112;11.662;2023-02-28T00:13:47;1.90;74.90
31379;DHT22;61664;48.112;11.662;2023-02-28T00:16:20;1.90;75.00
31379;DHT22;61664;48.112;11.662;2023-02-28T00:18:48;1.90;74.80
31379;DHT22;61664;48.112;11.662;2023-02-28T00:21:17;1.90;74.90
31379;DHT22;61664;48.112;11.662;2023-02-28T00:23:44;1.90;74.80
31379;DHT22;61664;48.112;11.662;2023-02-28T00:26:11;1.80;74.80
31379;DHT22;61664;48.112;11.662;2023-02-28T00:28:38;1.80;74.70
31379;DHT22;61664;48.112;11.662;2023-02-28T00:31:05;1.80;74.70
31379;DHT22;61664;48.112;11.662;2023-02-28T00:33:32;1.80;74.60
31379;DHT22;61664;48.112;11.662;2023-02-28T00:36:04;1.80;74.60
31379;DHT22;61664;48.112;11.662;2023-02-28T00:38:36;1.80;73.90
31379;DHT22;61664;48.112;11.662;2023-02-28T00:41:04;1.80;74.40
31379;DHT22;61664;48.112;11.662;2023-02-28T00:43:33;1.70;74.30
31379;DHT22;61664;48.112;11.662;2023-02-28T00:46:01;1.70;74.20
31379;DHT22;61664;48.112;11.662;2023-02-28T00:48:28;1.70;74.30
31379;DHT22;61664;48.112;11.662;2023-02-28T00:50:55;1.70;74.20
31379;DHT22;61664;48.112;11.662;2023-02-28T00:53:22;1.60;74.20
31379;DHT22;61664;48.112;11.662;2023-02-28T00:55:49;1.60;74.10
31379;DHT22;61664;48.112;11.662;2023-02-28T00:58:17;1.60;74.20
31379;DHT22;61664;48.112;11.662;2023-02-28T01:00:44;1.60;74.20
31379;DHT22;61664;48.112;11.662;2023-02-28T01:03:19;1.60;74.20
31379;DHT22;61664;48.112;11.662;2023-02-28T01:05:47;1.60;73.70
31379;DHT22;61664;48.112;11.662;2023-02-28T01:08:14;1.50;74.10
31379;DHT22;61664;48.112;11.662;2023-02-28T01:10:41;1.50;74.10
31379;DHT22;61664;48.112;11.662;2023-02-28T01:13:09;1.50;74.20
31379;DHT22;61664;48.112;11.662;2023-02-28T01:15:36;1.50;74.10
31379;DHT22;61664;48.112;11.662;2023-02-28T01:18:14;1.50;74.20
31379;DHT22;61664;48.112;11.662;2023-02-28T01:20:41;1.50;74.10
31379;DHT22;61664;48.112;11.662;2023-02-28T01:23:08;1.50;74.10
31379;DHT22;61664;48.112;11.662;2023-02-28T01:25:36;1.50;73.90
31379;DHT22;61664;48.112;11.662;2023-02-28T01:28:04;1.50;73.90
31379;DHT22;61664;48.112;11.662;2023-02-28T01:30:32;1.40;73.90
31379;DHT22;61664;48.112;11.662;2023-02-28T01:32:59;1.40;73.80
31379;DHT22;61664;48.112;11.662;2023-02-28T01:35:26;1.40;73.80
31379;DHT22;61664;48.112;11.662;2023-02-28T01:37:53;1.40;73.80
31379;DHT22;61664;48.112;11.662;2023-02-28T01:40:20;1.40;73.70
31379;DHT22;61664;48.112;11.662;2023-02-28T01:42:48;1.40;73.80
31379;DHT22;61664;48.112;11.662;2023-02-28T01:45:29;1.40;73.80
31379;DHT22;61664;48.112;11.662;2023-02-28T01:48:04;1.40;71.70
31379;DHT22;61664;48.112;11.662;2023-02-28T01:50:40;1.40;72.90
31379;DHT22;61664;48.112;11.662;2023-02-28T01:53:16;1.30;73.40
31379;DHT22;61664;48.112;11.662;2023-02-28T01:55:48;1.30;72.80
31379;DHT22;61664;48.112;11.662;2023-02-28T01:58:18;1.30;73.30
31379;DHT22;61664;48.112;11.662;2023-02-28T02:00:46;1.30;73.60
31379;DHT22;61664;48.112;11.662;2023-02-28T02:03:16;1.30;73.50
31379;DHT22;61664;48.112;11.662;2023-02-28T02:05:46;1.30;73.30
31379;DHT22;61664;48.112;11.662;2023-02-28T02:08:21;1.30;73.40
31379;DHT22;61664;48.112;11.662;2023-02-28T02:10:56;1.30;73.10
31379;DHT22;61664;48.112;11.662;2023-02-28T02:13:38;1.30;73.40
31379;DHT22;61664;48.112;11.662;2023-02-28T02:16:40;1.30;73.20
31379;DHT22;61664;48.112;11.662;2023-02-28T02:19:44;1.20;71.60
31379;DHT22;61664;48.112;11.662;2023-02-28T02:31:27;1.10;72.20
31379;DHT22;61664;48.112;11.662;2023-02-28T02:34:45;1.10;72.70
31379;DHT22;61664;48.112;11.662;2023-02-28T02:40:30;1.10;71.70
31379;DHT22;61664;48.112;11.662;2023-02-28T02:43:07;1.10;73.30
31379;DHT22;61664;48.112;11.662;2023-02-28T02:46:21;1.10;73.20
31379;DHT22;61664;48.112;11.662;2023-02-28T02:48:55;1.10;73.10
31379;DHT22;61664;48.112;11.662;2023-02-28T02:51:24;1.10;73.30
31379;DHT22;61664;48.112;11.662;2023-02-28T02:53:56;1.00;73.40
31379;DHT22;61664;48.112;11.662;2023-02-28T02:56:46;1.10;69.70
31379;DHT22;61664;48.112;11.662;2023-02-28T02:59:18;1.00;73.20
31379;DHT22;61664;48.112;11.662;2023-02-28T03:02:09;1.00;73.10
31379;DHT22;61664;48.112;11.662;2023-02-28T03:04:46;1.00;71.00
31379;DHT22;61664;48.112;11.662;2023-02-28T03:07:18;1.00;73.10
31379;DHT22;61664;48.112;11.662;2023-02-28T03:09:52;1.00;73.60
31379;DHT22;61664;48.112;11.662;2023-02-28T03:12:32;1.00;72.70
31379;DHT22;61664;48.112;11.662;2023-02-28T03:15:11;1.00;73.30
31379;DHT22;61664;48.112;11.662;2023-02-28T03:20:38;1.00;73.30
31379;DHT22;61664;48.112;11.662;2023-02-28T03:23:12;0.90;72.40
31379;DHT22;61664;48.112;11.662;2023-02-28T03:26:04;0.90;73.30
31379;DHT22;61664;48.112;11.662;2023-02-28T03:29:13;0.90;71.10
31379;DHT22;61664;48.112;11.662;2023-02-28T03:31:51;0.90;70.80
31379;DHT22;61664;48.112;11.662;2023-02-28T03:34:26;0.90;73.10
31379;DHT22;61664;48.112;11.662;2023-02-28T03:37:06;0.80;73.20
31379;DHT22;61664;48.112;11.662;2023-02-28T03:39:44;0.80;73.10
31379;DHT22;61664;48.112;11.662;2023-02-28T03:42:20;0.80;72.80
31379;DHT22;61664;48.112;11.662;2023-02-28T03:44:53;0.80;73.10
31379;DHT22;61664;48.112;11.662;2023-02-28T03:47:31;0.80;73.20
31379;DHT22;61664;48.112;11.662;2023-02-28T03:50:26;0.80;73.20
31379;DHT22;61664;48.112;11.662;2023-02-28T03:53:13;0.80;73.10
31379;DHT22;61664;48.112;11.662;2023-02-28T03:55:45;0.70;72.20
31379;DHT22;61664;48.112;11.662;2023-02-28T03:58:44;0.80;73.20
31379;DHT22;61664;48.112;11.662;2023-02-28T04:04:04;0.70;71.20
31379;DHT22;61664;48.112;11.662;2023-02-28T04:06:33;0.60;73.30
31379;DHT22;61664;48.112;11.662;2023-02-28T04:09:02;0.60;73.30
31379;DHT22;61664;48.112;11.662;2023-02-28T04:11:37;0.60;73.40
31379;DHT22;61664;48.112;11.662;2023-02-28T04:14:06;0.60;73.20
31379;DHT22;61664;48.112;11.662;2023-02-28T04:16:37;0.50;73.60
31379;DHT22;61664;48.112;11.662;2023-02-28T04:19:08;0.50;73.60
31379;DHT22;61664;48.112;11.662;2023-02-28T04:21:41;0.50;73.80
31379;DHT22;61664;48.112;11.662;2023-02-28T04:24:12;0.50;73.70
31379;DHT22;61664;48.112;11.662;2023-02-28T04:26:45;0.40;74.10
31379;DHT22;61664;48.112;11.662;2023-02-28T04:29:22;0.50;74.30
31379;DHT22;61664;48.112;11.662;2023-02-28T04:31:50;0.50;74.20
31379;DHT22;61664;48.112;11.662;2023-02-28T04:34:20;0.40;74.60
31379;DHT22;61664;48.112;11.662;2023-02-28T04:36:48;0.50;75.00
31379;DHT22;61664;48.112;11.662;2023-02-28T04:39:38;0.50;75.30
31379;DHT22;61664;48.112;11.662;2023-02-28T04:42:05;0.50;75.40
31379;DHT22;61664;48.112;11.662;2023-02-28T04:44:33;0.60;75.70
31379;DHT22;61664;48.112;11.662;2023-02-28T04:47:00;0.60;75.70
31379;DHT22;61664;48.112;11.662;2023-02-28T04:49:27;0.60;75.70
31379;DHT22;61664;48.112;11.662;2023-02-28T04:51:53;0.60;75.80
31379;DHT22;61664;48.112;11.662;2023-02-28T04:54:20;0.60;75.90
31379;DHT22;61664;48.112;11.662;2023-02-28T04:56:47;0.70;76.00
31379;DHT22;61664;48.112;11.662;2023-02-28T04:59:16;0.70;76.00
31379;DHT22;61664;48.112;11.662;2023-02-28T05:01:47;0.70;75.90
31379;DHT22;61664;48.112;11.662;2023-02-28T05:04:16;0.80;75.80
31379;DHT22;61664;48.112;11.662;2023-02-28T05:06:43;0.80;75.90
31379;DHT22;61664;48.112;11.662;2023-02-28T05:09:10;0.80;75.90
31379;DHT22;61664;48.112;11.662;2023-02-28T05:11:40;0.90;76.00
31379;DHT22;61664;48.112;11.662;2023-02-28T05:14:12;0.90;76.10
31379;DHT22;61664;48.112;11.662;2023-02-28T05:16:40;0.90;76.30
31379;DHT22;61664;48.112;11.662;2023-02-28T05:19:07;0.90;76.10
31379;DHT22;61664;48.112;11.662;2023-02-28T05:21:37;0.90;76.20
31379;DHT22;61664;48.112;11.662;2023-02-28T05:24:09;0.90;76.20
31379;DHT22;61664;48.112;11.662;2023-02-28T05:26:39;1.00;76.20
31379;DHT22;61664;48.112;11.662;2023-02-28T05:29:09;1.00;76.50
31379;DHT22;61664;48.112;11.662;2023-02-28T05:31:37;1.10;76.80
31379;DHT22;61664;48.112;11.662;2023-02-28T05:34:04;1.10;76.80
31379;DHT22;61664;48.112;11.662;2023-02-28T05:36:32;1.10;76.90
31379;DHT22;61664;48.112;11.662;2023-02-28T05:38:59;1.20;76.90
31379;DHT22;61664;48.112;11.662;2023-02-28T05:41:26;1.30;77.00
31379;DHT22;61664;48.112;11.662;2023-02-28T05:43:54;1.30;76.90
31379;DHT22;61664;48.112;11.662;2023-02-28T05:46:21;1.30;76.90
31379;DHT22;61664;48.112;11.662;2023-02-28T05:48:48;1.30;77.00
31379;DHT22;61664;48.112;11.662;2023-02-28T05:51:16;1.40;77.00
31379;DHT22;61664;48.112;11.662;2023-02-28T05:53:44;1.40;77.00
31379;DHT22;61664;48.112;11.662;2023-02-28T05:56:11;1.40;77.00
31379;DHT22;61664;48.112;11.662;2023-02-28T05:58:37;1.50;76.90
31379;DHT22;61664;48.112;11.662;2023-02-28T06:01:32;1.50;77.00
31379;DHT22;61664;48.112;11.662;2023-02-28T06:04:01;1.50;74.30
31379;DHT22;61664;48.112;11.662;2023-02-28T06:06:29;1.60;77.00
31379;DHT22;61664;48.112;11.662;2023-02-28T06:08:57;1.60;77.00
31379;DHT22;61664;48.112;11.662;2023-02-28T06:11:24;1.60;77.10
31379;DHT22;61664;48.112;11.662;2023-02-28T06:13:58;1.60;77.00
31379;DHT22;61664;48.112;11.662;2023-02-28T06:16:28;1.60;76.70
31379;DHT22;61664;48.112;11.662;2023-02-28T06:19:01;1.60;76.90
31379;DHT22;61664;48.112;11.662;2023-02-28T06:21:30;1.60;77.00
31379;DHT22;61664;48.112;11.662;2023-02-28T06:23:58;1.60;77.00
31379;DHT22;61664;48.112;11.662;2023-02-28T06:26:26;1.70;77.10
31379;DHT22;61664;48.112;11.662;2023-02-28T06:28:53;1.70;77.20
31379;DHT22;61664;48.112;11.662;2023-02-28T06:31:21;1.70;77.10
31379;DHT22;61664;48.112;11.662;2023-02-28T06:33:49;1.70;77.40
31379;DHT22;61664;48.112;11.662;2023-02-28T06:36:17;1.70;77.40
31379;DHT22;61664;48.112;11.662;2023-02-28T06:38:44;1.80;77.70
31379;DHT22;61664;48.112;11.662;2023-02-28T06:41:11;1.80;77.90
31379;DHT22;61664;48.112;11.662;2023-02-28T06:43:41;1.80;77.60
31379;DHT22;61664;48.112;11.662;2023-02-28T06:46:12;1.90;77.60
31379;DHT22;61664;48.112;11.662;2023-02-28T06:48:42;1.90;77.10
31379;DHT22;61664;48.112;11.662;2023-02-28T06:51:16;1.90;77.40
31379;DHT22;61664;48.112;11.662;2023-02-28T06:53:46;1.90;76.70
31379;DHT22;61664;48.112;11.662;2023-02-28T06:56:15;1.90;77.80
31379;DHT22;61664;48.112;11.662;2023-02-28T06:58:46;1.90;77.70
31379;DHT22;61664;48.112;11.662;2023-02-28T07:01:15;1.90;77.00
31379;DHT22;61664;48.112;11.662;2023-02-28T07:03:43;2.00;77.40
31379;DHT22;61664;48.112;11.662;2023-02-28T07:06:10;2.00;77.30
31379;DHT22;61664;48.112;11.662;2023-02-28T07:08:37;2.00;77.40
31379;DHT22;61664;48.112;11.662;2023-02-28T07:11:04;1.90;77.50
31379;DHT22;61664;48.112;11.662;2023-02-28T07:13:31;2.00;77.60
31379;DHT22;61664;48.112;11.662;2023-02-28T07:16:01;2.10;77.60
31379;DHT22;61664;48.112;11.662;2023-02-28T07:18:31;2.00;77.20
31379;DHT22;61664;48.112;11.662;2023-02-28T07:21:05;2.00;77.40
31379;DHT22;61664;48.112;11.662;2023-02-28T07:23:35;2.10;77.50
31379;DHT22;61664;48.112;11.662;2023-02-28T07:26:06;2.10;77.80
31379;DHT22;61664;48.112;11.662;2023-02-28T07:28:33;2.10;77.90
31379;DHT22;61664;48.112;11.662;2023-02-28T07:31:04;2.20;78.00
31379;DHT22;61664;48.112;11.662;2023-02-28T07:33:33;2.20;77.60
31379;DHT22;61664;48.112;11.662;2023-02-28T07:36:09;2.30;78.10
31379;DHT22;61664;48.112;11.662;2023-02-28T07:38:43;2.30;77.20
31379;DHT22;61664;48.112;11.662;2023-02-28T07:41:18;2.30;77.70
31379;DHT22;61664;48.112;11.662;2023-02-28T07:43:46;2.40;77.50
31379;DHT22;61664;48.112;11.662;2023-02-28T07:46:15;2.40;77.50
31379;DHT22;61664;48.112;11.662;2023-02-28T07:48:44;2.40;77.50
31379;DHT22;61664;48.112;11.662;2023-02-28T07:51:11;2.40;77.50
31379;DHT22;61664;48.112;11.662;2023-02-28T07:53:38;2.40;77.50
31379;DHT22;61664;48.112;11.662;2023-02-28T07:56:06;2.40;77.40
31379;DHT22;61664;48.112;11.662;2023-02-28T07:58:33;2.40;77.40
31379;DHT22;61664;48.112;11.662;2023-02-28T08:01:08;2.40;77.30
31379;DHT22;61664;48.112;11.662;2023-02-28T08:03:36;2.40;76.20
31379;DHT22;61664;48.112;11.662;2023-02-28T08:06:05;2.40;77.50
31379;DHT22;61664;48.112;11.662;2023-02-28T08:08:34;2.40;77.40
31379;DHT22;61664;48.112;11.662;2023-02-28T08:11:02;2.50;77.60
31379;DHT22;61664;48.112;11.662;2023-02-28T08:13:30;2.40;77.60
31379;DHT22;61664;48.112;11.662;2023-02-28T08:15:57;2.50;77.80
31379;DHT22;61664;48.112;11.662;2023-02-28T08:18:24;2.50;77.80
31379;DHT22;61664;48.112;11.662;2023-02-28T08:20:51;2.50;77.80
31379;DHT22;61664;48.112;11.662;2023-02-28T08:23:18;2.50;77.90
31379;DHT22;61664;48.112;11.662;2023-02-28T08:25:55;2.50;78.10
31379;DHT22;61664;48.112;11.662;2023-02-28T08:28:23;2.50;76.60
31379;DHT22;61664;48.112;11.662;2023-02-28T08:30:53;2.50;77.70
31379;DHT22;61664;48.112;11.662;2023-02-28T08:33:21;2.50;77.70
31379;DHT22;61664;48.112;11.662;2023-02-28T08:35:52;2.50;77.90
31379;DHT22;61664;48.112;11.662;2023-02-28T08:38:21;2.50;77.50
31379;DHT22;61664;48.112;11.662;2023-02-28T08:40:49;2.50;77.70
31379;DHT22;61664;48.112;11.662;2023-02-28T08:43:16;2.60;77.90
31379;DHT22;61664;48.112;11.662;2023-02-28T08:45:43;2.60;78.00
31379;DHT22;61664;48.112;11.662;2023-02-28T08:48:10;2.60;78.00
31379;DHT22;61664;48.112;11.662;2023-02-28T08:50:37;2.60;78.00
31379;DHT22;61664;48.112;11.662;2023-02-28T08:53:05;2.70;78.20
31379;DHT22;61664;48.112;11.662;2023-02-28T08:55:32;2.70;78.50
31379;DHT22;61664;48.112;11.662;2023-02-28T08:57:59;2.70;78.60
31379;DHT22;61664;48.112;11.662;2023-02-28T09:00:28;2.80;78.70
31379;DHT22;61664;48.112;11.662;2023-02-28T09:02:57;2.90;78.50
31379;DHT22;61664;48.112;11.662;2023-02-28T09:05:24;2.90;78.40
31379;DHT22;61664;48.112;11.662;2023-02-28T09:07:51;3.00;78.40
31379;DHT22;61664;48.112;11.662;2023-02-28T09:10:18;3.00;78.20
31379;DHT22;61664;48.112;11.662;2023-02-28T09:12:45;3.10;78.10
31379;DHT22;61664;48.112;11.662;2023-02-28T09:15:13;3.10;78.10
31379;DHT22;61664;48.112;11.662;2023-02-28T09:17:40;3.20;77.90
31379;DHT22;61664;48.112;11.662;2023-02-28T09:20:09;3.20;77.80
31379;DHT22;61664;48.112;11.662;2023-02-28T09:22:37;3.30;77.60
31379;DHT22;61664;48.112;11.662;2023-02-28T09:25:04;3.30;77.40
31379;DHT22;61664;48.112;11.662;2023-02-28T09:27:31;3.30;77.30
31379;DHT22;61664;48.112;11.662;2023-02-28T09:29:58;3.30;77.30
31379;DHT22;61664;48.112;11.662;2023-02-28T09:32:25;3.30;77.40
31379;DHT22;61664;48.112;11.662;2023-02-28T09:34:52;3.30;77.50
31379;DHT22;61664;48.112;11.662;2023-02-28T09:37:19;3.40;77.40
31379;DHT22;61664;48.112;11.662;2023-02-28T09:39:46;3.40;77.10
31379;DHT22;61664;48.112;11.662;2023-02-28T09:42:24;3.30;77.20
31379;DHT22;61664;48.112;11.662;2023-02-28T09:44:58;3.40;75.50
31379;DHT22;61664;48.112;11.662;2023-02-28T09:47:36;3.40;77.50
31379;DHT22;61664;48.112;11.662;2023-02-28T09:52:55;3.40;73.90
31379;DHT22;61664;48.112;11.662;2023-02-28T10:01:10;3.50;75.90
31379;DHT22;61664;48.112;11.662;2023-02-28T10:06:46;3.60;76.10
31379;DHT22;61664;48.112;11.662;2023-02-28T10:09:19;3.60;77.60
31379;DHT22;61664;48.112;11.662;2023-02-28T10:11:52;3.70;78.10
31379;DHT22;61664;48.112;11.662;2023-02-28T10:14:26;3.80;78.20
31379;DHT22;61664;48.112;11.662;2023-02-28T10:17:08;3.80;78.00
31379;DHT22;61664;48.112;11.662;2023-02-28T10:22:23;4.00;76.90
31379;DHT22;61664;48.112;11.662;2023-02-28T10:24:57;4.00;78.10
31379;DHT22;61664;48.112;11.662;2023-02-28T10:27:32;4.10;77.60
31379;DHT22;61664;48.112;11.662;2023-02-28T10:30:02;4.20;77.90
31379;DHT22;61664;48.112;11.662;2023-02-28T10:32:32;4.30;77.60
31379;DHT22;61664;48.112;11.662;2023-02-28T10:35:06;4.40;77.30
31379;DHT22;61664;48.112;11.662;2023-02-28T10:37:44;4.50;77.80
31379;DHT22;61664;48.112;11.662;2023-02-28T10:45:29;4.90;74.10
31379;DHT22;61664;48.112;11.662;2023-02-28T10:48:04;4.90;76.90
31379;DHT22;61664;48.112;11.662;2023-02-28T10:50:53;5.00;77.30
31379;DHT22;61664;48.112;11.662;2023-02-28T10:58:42;5.50;73.60
31379;DHT22;61664;48.112;11.662;2023-02-28T11:01:20;5.60;75.60
31379;DHT22;61664;48.112;11.662;2023-02-28T11:03:49;5.60;74.20
31379;DHT22;61664;48.112;11.662;2023-02-28T11:06:28;5.70;75.60
31379;DHT22;61664;48.112;11.662;2023-02-28T11:09:04;5.70;74.30
31379;DHT22;61664;48.112;11.662;2023-02-28T11:11:44;5.70;73.90
31379;DHT22;61664;48.112;11.662;2023-02-28T11:14:28;5.80;75.50
31379;DHT22;61664;48.112;11.662;2023-02-28T11:17:22;5.70;71.40
31379;DHT22;61664;48.112;11.662;2023-02-28T11:19:53;5.80;70.30
31379;DHT22;61664;48.112;11.662;2023-02-28T11:22:27;5.80;75.40
31379;DHT22;61664;48.112;11.662;2023-02-28T11:25:02;5.80;74.70
31379;DHT22;61664;48.112;11.662;2023-02-28T11:27:50;5.90;73.70
31379;DHT22;61664;48.112;11.662;2023-02-28T11:30:31;5.80;72.90
31379;DHT22;61664;48.112;11.662;2023-02-28T11:33:15;5.80;72.10
31379;DHT22;61664;48.112;11.662;2023-02-28T11:36:21;5.80;75.10
31379;DHT22;61664;48.112;11.662;2023-02-28T11:38:54;5.90;73.10
31379;DHT22;61664;48.112;11.662;2023-02-28T11:44:43;5.80;74.50
31379;DHT22;61664;48.112;11.662;2023-02-28T11:50:54;5.90;76.60
31379;DHT22;61664;48.112;11.662;2023-02-28T12:05:00;6.60;77.10
31379;DHT22;61664;48.112;11.662;2023-02-28T12:10:25;6.90;76.50
31379;DHT22;61664;48.112;11.662;2023-02-28T12:13:12;7.10;73.00
31379;DHT22;61664;48.112;11.662;2023-02-28T12:19:06;7.40;70.20
31379;DHT22;61664;48.112;11.662;2023-02-28T12:21:59;7.40;71.00
31379;DHT22;61664;48.112;11.662;2023-02-28T12:25:28;7.50;73.90
31379;DHT22;61664;48.112;11.662;2023-02-28T12:27:39;7.50;73.80
31379;DHT22;61664;48.112;11.662;2023-02-28T12:30:32;7.60;73.30
31379;DHT22;61664;48.112;11.662;2023-02-28T12:33:10;7.60;69.00
31379;DHT22;61664;48.112;11.662;2023-02-28T12:35:58;7.60;71.40
31379;DHT22;61664;48.112;11.662;2023-02-28T12:38:47;7.60;71.00
31379;DHT22;61664;48.112;11.662;2023-02-28T12:41:21;7.60;74.60
31379;DHT22;61664;48.112;11.662;2023-02-28T12:44:14;7.60;74.40
31379;DHT22;61664;48.112;11.662;2023-02-28T12:46:50;7.70;69.30
31379;DHT22;61664;48.112;11.662;2023-02-28T12:49:24;7.70;74.20
31379;DHT22;61664;48.112;11.662;2023-02-28T12:52:00;7.70;73.60
31379;DHT22;61664;48.112;11.662;2023-02-28T12:54:40;7.60;73.60
31379;DHT22;61664;48.112;11.662;2023-02-28T12:57:22;7.50;70.70
31379;DHT22;61664;48.112;11.662;2023-02-28T13:00:10;7.40;72.70
31379;DHT22;61664;48.112;11.662;2023-02-28T13:05:56;7.40;76.90
31379;DHT22;61664;48.112;11.662;2023-02-28T13:14:37;7.50;75.10
31379;DHT22;61664;48.112;11.662;2023-02-28T13:22:19;7.40;74.30
31379;DHT22;61664;48.112;11.662;2023-02-28T13:27:51;7.30;70.90
31379;DHT22;61664;48.112;11.662;2023-02-28T14:03:00;7.70;77.00
31379;DHT22;61664;48.112;11.662;2023-02-28T14:05:35;7.80;73.20
31379;DHT22;61664;48.112;11.662;2023-02-28T14:08:18;7.80;79.00
31379;DHT22;61664;48.112;11.662;2023-02-28T14:11:02;7.80;76.20
31379;DHT22;61664;48.112;11.662;2023-02-28T14:13:43;7.80;78.70
31379;DHT22;61664;48.112;11.662;2023-02-28T14:16:16;7.70;74.70
31379;DHT22;61664;48.112;11.662;2023-02-28T14:19:25;7.80;79.20
31379;DHT22;61664;48.112;11.662;2023-02-28T14:24:54;7.70;77.00
31379;DHT22;61664;48.112;11.662;2023-02-28T14:31:10;7.70;71.50
31379;DHT22;61664;48.112;11.662;2023-02-28T14:36:43;7.60;72.10
31379;DHT22;61664;48.112;11.662;2023-02-28T14:39:25;7.50;78.80
31379;DHT22;61664;48.112;11.662;2023-02-28T14:41:54;7.40;73.80
31379;DHT22;61664;48.112;11.662;2023-02-28T14:44:26;7.50;80.30
31379;DHT22;61664;48.112;11.662;2023-02-28T14:46:55;7.50;78.50
31379;DHT22;61664;48.112;11.662;2023-02-28T14:49:35;7.50;79.80
31379;DHT22;61664;48.112;11.662;2023-02-28T14:54:44;7.50;77.10
31379;DHT22;61664;48.112;11.662;2023-02-28T15:02:34;7.60;78.20
31379;DHT22;61664;48.112;11.662;2023-02-28T15:07:45;7.80;75.90
31379;DHT22;61664;48.112;11.662;2023-02-28T15:10:18;7.80;81.10
31379;DHT22;61664;48.112;11.662;2023-02-28T15:13:10;7.90;82.50
31379;DHT22;61664;48.112;11.662;2023-02-28T15:15:55;8.10;76.20
31379;DHT22;61664;48.112;11.662;2023-02-28T15:21:30;8.70;83.20
31379;DHT22;61664;48.112;11.662;2023-02-28T15:24:08;9.10;81.90
31379;DHT22;61664;48.112;11.662;2023-02-28T15:26:46;9.50;84.50
31379;DHT22;61664;48.112;11.662;2023-02-28T15:29:21;9.80;83.40
31379;DHT22;61664;48.112;11.662;2023-02-28T15:32:05;10.10;85.10
31379;DHT22;61664;48.112;11.662;2023-02-28T15:34:40;10.40;81.80
31379;DHT22;61664;48.112;11.662;2023-02-28T15:37:39;10.60;80.30
31379;DHT22;61664;48.112;11.662;2023-02-28T15:45:58;10.90;72.60
31379;DHT22;61664;48.112;11.662;2023-02-28T15:48:28;10.80;76.50
31379;DHT22;61664;48.112;11.662;2023-02-28T15:51:11;10.70;77.50
31379;DHT22;61664;48.112;11.662;2023-02-28T15:53:51;10.60;74.90
31379;DHT22;61664;48.112;11.662;2023-02-28T15:56:32;10.50;76.00
31379;DHT22;61664;48.112;11.662;2023-02-28T15:59:06;10.30;77.50
31379;DHT22;61664;48.112;11.662;2023-02-28T16:01:39;10.30;77.70
31379;DHT22;61664;48.112;11.662;2023-02-28T16:04:13;10.20;78.40
31379;DHT22;61664;48.112;11.662;2023-02-28T16:06:47;10.10;73.80
31379;DHT22;61664;48.112;11.662;2023-02-28T16:09:28;10.00;74.20
31379;DHT22;61664;48.112;11.662;2023-02-28T16:12:02;9.80;75.30
31379;DHT22;61664;48.112;11.662;2023-02-28T16:14:30;9.60;74.70
31379;DHT22;61664;48.112;11.662;2023-02-28T16:17:06;9.40;74.70
31379;DHT22;61664;48.112;11.662;2023-02-28T16:19:39;9.20;71.40
31379;DHT22;61664;48.112;11.662;2023-02-28T16:22:08;8.90;75.20
31379;DHT22;61664;48.112;11.662;2023-02-28T16:24:36;8.70;74.90
31379;DHT22;61664;48.112;11.662;2023-02-28T16:27:03;8.40;75.50
31379;DHT22;61664;48.112;11.662;2023-02-28T16:29:33;8.30;75.80
31379;DHT22;61664;48.112;11.662;2023-02-28T16:32:04;8.10;75.40
31379;DHT22;61664;48.112;11.662;2023-02-28T16:34:32;7.90;75.40
31379;DHT22;61664;48.112;11.662;2023-02-28T16:36:59;7.80;76.20
31379;DHT22;61664;48.112;11.662;2023-02-28T16:39:26;7.60;76.30
31379;DHT22;61664;48.112;11.662;2023-02-28T16:41:53;7.50;76.60
31379;DHT22;61664;48.112;11.662;2023-02-28T16:44:29;7.40;76.80
31379;DHT22;61664;48.112;11.662;2023-02-28T16:47:02;7.20;74.90
31379;DHT22;61664;48.112;11.662;2023-02-28T16:49:30;7.10;76.00
31379;DHT22;61664;48.112;11.662;2023-02-28T16:51:57;6.90;77.40
31379;DHT22;61664;48.112;11.662;2023-02-28T16:54:24;6.80;77.70
31379;DHT22;61664;48.112;11.662;2023-02-28T16:56:52;6.70;77.90
31379;DHT22;61664;48.112;11.662;2023-02-28T16:59:24;6.70;77.80
31379;DHT22;61664;48.112;11.662;2023-02-28T17:01:54;6.60;76.40
31379;DHT22;61664;48.112;11.662;2023-02-28T17:04:27;6.50;77.60
31379;DHT22;61664;48.112;11.662;2023-02-28T17:06:54;6.40;77.40
31379;DHT22;61664;48.112;11.662;2023-02-28T17:09:22;6.30;77.40
31379;DHT22;61664;48.112;11.662;2023-02-28T17:12:06;6.20;77.20
31379;DHT22;61664;48.112;11.662;2023-02-28T17:14:33;6.20;77.40
31379;DHT22;61664;48.112;11.662;2023-02-28T17:17:01;6.10;77.40
31379;DHT22;61664;48.112;11.662;2023-02-28T17:19:28;6.00;77.30
31379;DHT22;61664;48.112;11.662;2023-02-28T17:21:54;5.90;77.20
31379;DHT22;61664;48.112;11.662;2023-02-28T17:24:21;5.80;76.90
31379;DHT22;61664;48.112;11.662;2023-02-28T17:26:57;5.80;76.80
31379;DHT22;61664;48.112;11.662;2023-02-28T17:29:24;5.70;77.20
31379;DHT22;61664;48.112;11.662;2023-02-28T17:31:51;5.60;77.20
31379;DHT22;61664;48.112;11.662;2023-02-28T17:34:19;5.60;77.60
31379;DHT22;61664;48.112;11.662;2023-02-28T17:36:48;5.50;77.70
31379;DHT22;61664;48.112;11.662;2023-02-28T17:39:18;5.50;77.70
31379;DHT22;61664;48.112;11.662;2023-02-28T17:41:55;5.50;77.70
31379;DHT22;61664;48.112;11.662;2023-02-28T17:44:23;5.40;76.70
31379;DHT22;61664;48.112;11.662;2023-02-28T17:46:51;5.40;77.60
31379;DHT22;61664;48.112;11.662;2023-02-28T17:49:20;5.40;77.90
31379;DHT22;61664;48.112;11.662;2023-02-28T17:51:47;5.30;78.00
31379;DHT22;61664;48.112;11.662;2023-02-28T17:54:15;5.30;78.20
31379;DHT22;61664;48.112;11.662;2023-02-28T17:56:44;5.30;78.30
31379;DHT22;61664;48.112;11.662;2023-02-28T17:59:12;5.30;78.40
31379;DHT22;61664;48.112;11.662;2023-02-28T18:01:39;5.30;78.60
31379;DHT22;61664;48.112;11.662;2023-02-28T18:04:06;5.30;78.50
31379;DHT22;61664;48.112;11.662;2023-02-28T18:06:45;5.30;78.50
31379;DHT22;61664;48.112;11.662;2023-02-28T18:09:21;5.30;78.20
31379;DHT22;61664;48.112;11.662;2023-02-28T18:11:54;5.30;77.50
31379;DHT22;61664;48.112;11.662;2023-02-28T18:14:23;5.40;77.70
31379;DHT22;61664;48.112;11.662;2023-02-28T18:16:53;5.30;78.20
31379;DHT22;61664;48.112;11.662;2023-02-28T18:19:21;5.40;78.00
31379;DHT22;61664;48.112;11.662;2023-02-28T18:21:51;5.30;78.20
31379;DHT22;61664;48.112;11.662;2023-02-28T18:24:21;5.30;78.20
31379;DHT22;61664;48.112;11.662;2023-02-28T18:26:50;5.30;78.30
31379;DHT22;61664;48.112;11.662;2023-02-28T18:29:23;5.30;78.60
31379;DHT22;61664;48.112;11.662;2023-02-28T18:31:52;5.30;77.80